ADDS METAR Data INFO
IDs: Format: Raw Decoded Include TAF

Data at: 2308 UTC 21 Feb 2018

KPOU 212253Z 33017G22KT 10SM OVC060 22/13 A3023 RMK AO2 PRESRR SLP233 T02220128
KPOU 212153Z 22006KT 10SM BKN065 OVC085 24/13 A3017 RMK AO2 SLP211 T02390128
KPOU 212053Z 24009KT 10SM CLR 24/13 A3015 RMK AO2 SLP207 T02440128 55006
KPOU 211953Z 23011G17KT 10SM CLR 24/13 A3015 RMK AO2 SLP206 T02440128
KPOU 211853Z 23011G18KT 190V250 10SM CLR 24/12 A3015 RMK AO2 SLP205 T02390122
KPOU 211753Z 23012KT 10SM CLR 23/12 A3017 RMK AO2 SLP212 T02280122 10228 20078 58026
KPOU 211653Z 21010KT 10SM CLR 21/13 A3019 RMK AO2 SLP220 T02060128
KPOU 211553Z 24008KT 10SM CLR 19/13 A3022 RMK AO2 SLP231 T01890133
KPOU 211519Z 23009KT 10SM SCT016 17/13 A3024 RMK AO2 T01720128
KPOU 211453Z 24004KT 10SM OVC016 17/13 A3024 RMK AO2 SLP238 T01670128 58006
KPOU 211404Z COR 00000KT 5SM BR OVC015 13/12 A3026 RMK AO2 T01330117
KPOU 211353Z 00000KT 5SM BR OVC009 13/11 A3026 RMK AO2 SLP243 T01280106
KPOU 211253Z 00000KT 1SM BR OVC015 10/08 A3026 RMK AO2 SLP242 T01000083
KPOU 211224Z 00000KT 2SM BR OVC015 09/08 A3025 RMK AO2 T00940083
KPOU 210755Z AUTO 00000KT 1 1/2SM BR BKN003 04/04 A3026 RMK AO2 T00440039
KPOU 210753Z AUTO 00000KT 4SM BR BKN003 04/04 A3026 RMK AO2 SLP243 T00440039
KPOU 210743Z AUTO 00000KT 3SM BR BKN003 05/04 A3026 RMK AO2 T00500039
KPOU 210739Z AUTO 00000KT 1 1/4SM BR BKN003 04/03 A3026 RMK AO2 VIS 1/4V3 T00390033
KPOU 210732Z AUTO 00000KT 3/4SM BR VV003 04/04 A3026 RMK AO2 VIS 1/4V1 3/4 T00440039
KPOU 210725Z AUTO 00000KT 2 1/2SM BR SCT002 04/04 A3026 RMK AO2 T00440039
KPOU 210653Z AUTO 00000KT 6SM BR CLR 06/04 A3027 RMK AO2 SLP247 T00560044
KPOU 210636Z AUTO 00000KT 4SM BR FEW003 06/04 A3027 RMK AO2 T00560044
KPOU 210553Z AUTO 00000KT 7SM CLR 06/05 A3028 RMK AO2 SLP249 T00560050 10144 20056 58002
KPOU 201453Z VRB05KT 5SM BR OVC007 08/07 A3030 RMK AO2 SLP258 T00830067 50006
KPOU 201407Z 20004KT 2 1/2SM BR OVC008 07/06 A3030 RMK AO2 T00720061
KPOU 201400Z VRB05KT 6SM BR OVC008 07/06 A3030 RMK AO2 T00670061
KPOU 201353Z 20005KT 2 1/2SM BR OVC008 07/06 A3031 RMK AO2 CIG 006V010 SLP260 T00670056
KPOU 201253Z 18004KT 2 1/2SM BR OVC011 06/05 A3030 RMK AO2 SLP258 T00560050
KPOU 201249Z 19005KT 3SM BR BKN011 OVC070 06/05 A3030 RMK AO2
KPOU 201211Z 00000KT 1 3/4SM BR SCT002 BKN009 OVC075 05/05 A3029 RMK AO2 T00500050
KPOU 201153Z 18003KT 3/4SM BR OVC002 05/05 A3028 RMK AO2 SLP251 70017 T00500050 10056 20028 53006
KPOU 201135Z AUTO 19003KT 3/4SM BR OVC002 06/05 A3028 RMK AO2 T00560050
KPOU 201126Z AUTO 18003KT 1SM BR BKN002 OVC075 06/05 A3028 RMK AO2 T00560050
KPOU 201116Z AUTO 17004KT 2 1/2SM BR SCT003 OVC075 06/04 A3028 RMK AO2 T00560044